createdAt,value
2023-05-14T00:05:02.685Z,99.90
2023-05-14T00:10:15.607Z,99.90
2023-05-14T00:15:19.907Z,99.90
2023-05-14T00:20:26.158Z,99.90
2023-05-14T00:25:31.617Z,99.90
2023-05-14T00:30:35.284Z,99.90
2023-05-14T00:35:38.892Z,99.90
2023-05-14T00:40:51.271Z,99.90
2023-05-14T00:45:59.872Z,99.90
2023-05-14T00:51:08.067Z,99.90
2023-05-14T00:56:16.026Z,99.90
2023-05-14T01:01:20.664Z,99.90
2023-05-14T01:06:28.125Z,99.90
2023-05-14T01:11:35.176Z,99.90
2023-05-14T01:16:49.250Z,99.90
2023-05-14T01:21:56.538Z,99.90
2023-05-14T01:27:08.564Z,99.90
2023-05-14T01:32:13.614Z,99.90
2023-05-14T01:37:19.623Z,99.90
2023-05-14T01:42:23.957Z,99.90
2023-05-14T01:47:28.979Z,99.90
2023-05-14T01:52:36.613Z,99.90
2023-05-14T01:57:48.118Z,99.90
2023-05-14T02:02:52.419Z,99.90
2023-05-14T02:07:58.826Z,99.90
2023-05-14T02:13:02.665Z,99.90
2023-05-14T02:18:06.968Z,99.90
2023-05-14T02:23:17.530Z,99.90
2023-05-14T02:28:22.288Z,99.90
2023-05-14T02:33:26.135Z,99.90
2023-05-14T02:38:31.709Z,99.90
2023-05-14T02:43:36.525Z,99.90
2023-05-14T02:48:42.010Z,99.90
2023-05-14T02:53:52.610Z,99.90
2023-05-14T02:58:56.574Z,99.90
2023-05-14T03:04:01.128Z,99.90
2023-05-14T03:09:06.286Z,99.90
2023-05-14T03:14:10.487Z,99.90
2023-05-14T03:19:18.770Z,99.90
2023-05-14T03:24:24.177Z,99.90
2023-05-14T03:29:28.033Z,99.90
2023-05-14T03:34:31.726Z,99.90
2023-05-14T03:39:39.612Z,99.90
2023-05-14T03:44:44.881Z,99.90
2023-05-14T03:49:50.359Z,99.90
2023-05-14T03:54:56.085Z,99.90
2023-05-14T04:00:01.013Z,99.90
2023-05-14T04:05:06.518Z,99.90
2023-05-14T04:10:16.088Z,99.90
2023-05-14T04:15:22.796Z,99.90
2023-05-14T04:20:28.413Z,99.90
2023-05-14T04:25:33.338Z,99.90
2023-05-14T04:30:40.218Z,99.90
2023-05-14T04:35:44.922Z,99.90
2023-05-14T04:40:52.962Z,99.90
2023-05-14T04:45:57.414Z,99.90
2023-05-14T04:51:01.191Z,99.90
2023-05-14T04:56:06.829Z,99.90
2023-05-14T05:01:10.890Z,99.90
2023-05-14T05:06:15.360Z,99.90
2023-05-14T05:11:21.488Z,99.90
2023-05-14T05:16:26.444Z,99.90
2023-05-14T05:21:30.237Z,99.90
2023-05-14T05:26:37.729Z,99.90
2023-05-14T05:31:42.524Z,99.90
2023-05-14T05:36:49.696Z,99.90
2023-05-14T05:41:56.172Z,99.90
2023-05-14T05:47:00.880Z,99.90
2023-05-14T05:52:09.906Z,99.90
2023-05-14T05:57:15.648Z,99.90
2023-05-14T06:02:22.529Z,99.90
2023-05-14T06:07:28.370Z,99.90
2023-05-14T06:12:33.818Z,99.90
2023-05-14T06:17:38.001Z,99.90
2023-05-14T06:28:23.012Z,99.90
2023-05-14T06:33:31.530Z,99.90
2023-05-14T06:38:37.117Z,99.90
2023-05-14T06:43:46.064Z,99.90
2023-05-14T06:48:57.986Z,99.90
2023-05-14T06:54:05.420Z,99.90
2023-05-14T06:59:13.106Z,99.90
2023-05-14T07:04:19.406Z,99.90
2023-05-14T07:09:23.776Z,99.90
2023-05-14T07:14:29.642Z,99.90
2023-05-14T07:19:33.746Z,99.90
2023-05-14T07:24:37.968Z,99.90
2023-05-14T07:29:43.500Z,99.90
2023-05-14T07:34:51.514Z,99.90
2023-05-14T07:39:56.219Z,99.90
2023-05-14T07:45:03.796Z,99.90
2023-05-14T07:50:10.245Z,99.90
2023-05-14T07:55:16.299Z,99.90
2023-05-14T08:00:22.266Z,99.90
2023-05-14T08:05:28.163Z,99.90
2023-05-14T08:10:33.930Z,99.90
2023-05-14T08:15:39.134Z,99.90
2023-05-14T08:20:43.675Z,99.90
2023-05-14T08:25:49.420Z,99.90
2023-05-14T08:30:59.245Z,99.90
2023-05-14T08:36:03.232Z,99.90
2023-05-14T08:41:09.409Z,99.90
2023-05-14T08:46:16.089Z,99.90
2023-05-14T08:51:24.781Z,99.90
2023-05-14T08:56:29.404Z,99.90
2023-05-14T09:01:34.660Z,99.90
2023-05-14T09:06:40.823Z,99.90
2023-05-14T09:11:44.888Z,99.90
2023-05-14T09:16:53.074Z,99.90
2023-05-14T09:21:59.231Z,99.90
2023-05-14T09:27:04.940Z,99.90
2023-05-14T09:32:12.167Z,99.90
2023-05-14T09:37:17.828Z,99.90
2023-05-14T09:42:24.446Z,99.90
2023-05-14T09:47:31.370Z,99.90
2023-05-14T09:52:37.370Z,99.90
2023-05-14T09:57:41.438Z,99.90
2023-05-14T10:02:47.299Z,97.10
2023-05-14T10:07:54.307Z,98.50
2023-05-14T10:13:01.274Z,95.90
2023-05-14T10:18:14.615Z,96.80
2023-05-14T10:23:19.424Z,93.10
2023-05-14T10:28:25.211Z,93.00
2023-05-14T10:33:35.360Z,92.00
2023-05-14T10:38:40.485Z,91.50
2023-05-14T10:43:45.908Z,93.20
2023-05-14T10:49:00.048Z,91.00
2023-05-14T10:54:05.539Z,91.00
2023-05-14T10:59:09.163Z,85.00
2023-05-14T11:04:31.688Z,89.90
2023-05-14T11:09:37.480Z,87.20
2023-05-14T11:14:46.280Z,95.80
2023-05-14T11:20:00.180Z,86.40
2023-05-14T11:25:05.270Z,84.50
2023-05-14T11:30:20.872Z,87.30
2023-05-14T11:35:37.832Z,86.60
2023-05-14T11:40:42.666Z,82.80
2023-05-14T11:45:58.461Z,84.30
2023-05-14T11:51:07.026Z,84.40
2023-05-14T11:56:11.616Z,90.50
2023-05-14T12:01:16.713Z,83.10
2023-05-14T12:06:24.754Z,78.00
2023-05-14T12:11:33.421Z,78.80
2023-05-14T12:16:38.440Z,77.90
2023-05-14T12:21:46.890Z,83.20
2023-05-14T12:26:56.848Z,75.20
2023-05-14T12:32:04.787Z,77.50
2023-05-14T12:37:14.595Z,75.60
2023-05-14T12:42:19.574Z,73.80
2023-05-14T12:47:27.192Z,78.10
2023-05-14T12:52:39.440Z,81.60
2023-05-14T12:57:44.096Z,82.50
2023-05-14T13:02:48.408Z,80.90
2023-05-14T13:07:57.841Z,79.00
2023-05-14T13:13:03.559Z,81.30
2023-05-14T13:18:08.055Z,84.50
2023-05-14T13:23:17.468Z,87.80
2023-05-14T13:28:24.094Z,82.70
2023-05-14T13:33:46.583Z,86.50
2023-05-14T13:38:57.086Z,86.70
2023-05-14T13:44:02.129Z,88.70
2023-05-14T13:49:06.959Z,90.10
2023-05-14T13:54:13.120Z,93.80
2023-05-14T13:59:16.901Z,96.90
2023-05-14T14:04:20.758Z,99.90
2023-05-14T14:09:26.741Z,98.30
2023-05-14T14:14:37.812Z,98.70
2023-05-14T14:19:41.871Z,96.70
2023-05-14T14:24:47.064Z,92.90
2023-05-14T14:35:29.122Z,92.80
2023-05-14T14:40:36.660Z,89.20
2023-05-14T14:45:41.008Z,76.90
2023-05-14T14:50:46.403Z,84.60
2023-05-14T14:55:52.096Z,84.90
2023-05-14T15:01:00.343Z,85.80
2023-05-14T15:06:05.007Z,90.80
2023-05-14T15:11:10.341Z,84.20
2023-05-14T15:16:13.965Z,75.60
2023-05-14T15:21:18.708Z,79.30
2023-05-14T15:26:28.539Z,74.90
2023-05-14T15:31:36.621Z,77.10
2023-05-14T15:36:41.093Z,79.20
2023-05-14T15:41:46.373Z,79.80
2023-05-14T15:46:50.716Z,80.50
2023-05-14T15:51:54.940Z,78.40
2023-05-14T15:57:03.776Z,72.30
2023-05-14T16:02:07.646Z,75.10
2023-05-14T16:07:14.463Z,73.70
2023-05-14T16:12:19.654Z,72.30
2023-05-14T16:17:24.204Z,80.50
2023-05-14T16:22:29.693Z,72.30
2023-05-14T16:27:35.886Z,69.10
2023-05-14T16:32:42.301Z,72.80
2023-05-14T16:37:47.096Z,73.00
2023-05-14T16:42:53.157Z,74.70
2023-05-14T16:48:05.481Z,76.10
2023-05-14T16:53:11.499Z,74.10
2023-05-14T16:58:18.018Z,71.90
2023-05-14T17:03:22.097Z,70.60
2023-05-14T17:08:26.662Z,71.40
2023-05-14T17:13:35.531Z,78.50
2023-05-14T17:18:38.934Z,81.20
2023-05-14T17:23:43.619Z,85.50
2023-05-14T17:28:49.252Z,87.50
2023-05-14T17:33:52.692Z,85.00
2023-05-14T17:38:56.443Z,81.30
2023-05-14T17:44:02.129Z,82.40
2023-05-14T17:49:07.664Z,85.00
2023-05-14T17:54:14.563Z,87.50
2023-05-14T17:59:22.971Z,90.10
2023-05-14T18:04:31.541Z,89.00
2023-05-14T18:09:37.777Z,90.60
2023-05-14T18:14:50.183Z,90.00
2023-05-14T18:19:59.342Z,90.10
2023-05-14T18:25:08.264Z,91.20
2023-05-14T18:30:17.340Z,92.30
2023-05-14T18:35:26.299Z,93.30
2023-05-14T18:40:30.396Z,93.50
2023-05-14T18:45:37.928Z,93.30
2023-05-14T18:50:41.748Z,93.40
2023-05-14T18:55:45.940Z,93.50
2023-05-14T19:00:52.532Z,94.80
2023-05-14T19:05:56.501Z,95.70
2023-05-14T19:11:00.224Z,93.30
2023-05-14T19:16:09.916Z,95.10
2023-05-14T19:21:16.240Z,95.10
2023-05-14T19:26:22.063Z,94.90
2023-05-14T19:31:27.404Z,95.60
2023-05-14T19:36:31.649Z,96.10
2023-05-14T19:41:38.470Z,95.80
2023-05-14T19:46:45.389Z,96.30
2023-05-14T19:51:50.262Z,96.10
2023-05-14T19:56:58.020Z,96.50
2023-05-14T20:02:04.878Z,97.30
2023-05-14T20:07:10.464Z,97.50
2023-05-14T20:12:14.385Z,98.00
2023-05-14T20:17:20.996Z,97.50
2023-05-14T20:22:27.134Z,97.80
2023-05-14T20:27:30.601Z,97.70
2023-05-14T20:32:36.019Z,98.10
2023-05-14T20:37:40.635Z,98.30
2023-05-14T20:42:43.849Z,98.90
2023-05-14T20:47:50.525Z,99.30
2023-05-14T20:52:54.058Z,99.70
2023-05-14T20:57:58.131Z,99.90
2023-05-14T21:03:03.273Z,99.90
2023-05-14T21:08:07.736Z,99.90
2023-05-14T21:13:12.754Z,99.90
2023-05-14T21:18:18.931Z,99.90
2023-05-14T21:23:22.697Z,99.90
2023-05-14T21:28:26.962Z,99.90
2023-05-14T21:33:31.674Z,99.90
2023-05-14T21:38:35.194Z,99.90
2023-05-14T21:43:41.597Z,99.90
2023-05-14T21:48:46.882Z,99.90
2023-05-14T21:53:51.276Z,99.90
2023-05-14T21:58:56.460Z,99.90
2023-05-14T22:04:01.886Z,99.90
2023-05-14T22:09:06.236Z,99.90
2023-05-14T22:14:10.670Z,99.90
2023-05-14T22:19:17.255Z,99.90
2023-05-14T22:24:22.075Z,99.90
2023-05-14T22:29:26.763Z,99.90
2023-05-14T22:34:31.494Z,99.90
2023-05-14T22:39:36.446Z,99.90
2023-05-14T22:44:42.054Z,99.90
2023-05-14T22:49:47.805Z,99.90
2023-05-14T22:54:51.517Z,99.90
2023-05-14T22:59:55.104Z,99.90
2023-05-14T23:05:18.650Z,99.90
2023-05-14T23:10:29.764Z,99.90
2023-05-14T23:15:34.518Z,99.90
2023-05-14T23:20:39.957Z,99.90
2023-05-14T23:25:45.060Z,99.90
2023-05-14T23:30:49.380Z,99.90
2023-05-14T23:35:54.684Z,99.90
2023-05-14T23:40:58.732Z,99.90
2023-05-14T23:46:02.641Z,99.90
2023-05-14T23:51:13.766Z,99.90
2023-05-14T23:56:19.031Z,99.90
